Time;durP1;ratioP1;P1;durP2;ratioP2;P2;SDS_P1;SDS_P2;PMS_P1;PMS_P2;Temp;Humidity;BMP_temperature;BMP_pressure;BME280_temperature;BME280_humidity;BME280_pressure;Samples;Min_cycle;Max_cycle;Signal;HPM_P1;HPM_P2
2022/08/15 00:00:55;;;;;;;4.75;2.17;;;23.80;56.00;;;;;;6126341;23;20417;-71
2022/08/15 00:03:31;;;;;;;2.45;1.80;;;23.80;55.90;;;;;;6126644;23;20005;-68
2022/08/15 00:06:04;;;;;;;6.55;1.83;;;23.90;55.80;;;;;;6126423;23;19998;-68
2022/08/15 00:08:32;;;;;;;5.32;2.13;;;23.90;55.60;;;;;;6126579;23;20084;-68
2022/08/15 00:11:22;;;;;;;5.70;2.00;;;23.90;55.40;;;;;;6126389;23;20009;-68
2022/08/15 00:13:58;;;;;;;3.72;1.88;;;23.90;55.20;;;;;;6126422;23;20005;-68
2022/08/15 00:16:24;;;;;;;9.00;2.05;;;23.90;55.20;;;;;;6126392;23;20010;-69
2022/08/15 00:18:50;;;;;;;3.35;2.05;;;23.90;54.90;;;;;;6126006;23;20100;-67
2022/08/15 00:21:20;;;;;;;2.55;1.60;;;23.90;54.70;;;;;;6126159;23;20002;-68
2022/08/15 00:23:47;;;;;;;3.92;2.20;;;23.80;54.50;;;;;;6126526;23;20381;-69
2022/08/15 00:26:13;;;;;;;4.50;1.90;;;23.80;54.80;;;;;;6126352;23;20002;-69
2022/08/15 00:28:39;;;;;;;2.58;1.73;;;23.80;55.90;;;;;;6125840;23;20010;-68
2022/08/15 00:31:06;;;;;;;3.97;1.60;;;23.80;56.60;;;;;;6126094;23;20089;-73
2022/08/15 00:33:33;;;;;;;4.30;2.08;;;23.70;57.10;;;;;;6126390;23;20005;-68
2022/08/15 00:35:59;;;;;;;4.57;2.00;;;23.70;57.50;;;;;;6126166;23;20448;-68
2022/08/15 00:38:28;;;;;;;5.85;1.70;;;23.70;57.90;;;;;;6126239;23;19998;-70
2022/08/15 00:43:49;;;;;;;5.30;2.00;;;23.70;56.30;;;;;;6126246;23;20017;-68
2022/08/15 00:46:16;;;;;;;5.20;2.15;;;23.60;55.80;;;;;;6126085;23;20006;-70
2022/08/15 00:48:41;;;;;;;4.47;1.90;;;23.60;55.50;;;;;;6126381;23;20408;-68
2022/08/15 00:51:27;;;;;;;4.72;2.13;;;23.60;55.40;;;;;;6125853;23;20014;-68
2022/08/15 00:54:02;;;;;;;3.67;1.70;;;23.60;55.50;;;;;;6125918;23;20002;-68
2022/08/15 00:56:32;;;;;;;2.95;1.80;;;23.50;55.60;;;;;;6126085;23;20092;-68
2022/08/15 00:58:59;;;;;;;4.15;1.80;;;23.50;55.50;;;;;;6124396;23;20114;-68
2022/08/15 01:01:25;;;;;;;4.97;1.60;;;23.50;55.30;;;;;;6125043;23;20105;-68
2022/08/15 01:03:52;;;;;;;8.15;1.95;;;23.50;55.10;;;;;;6125184;23;20480;-68
2022/08/15 01:06:19;;;;;;;5.80;2.03;;;23.50;55.00;;;;;;6127343;23;20069;-68
2022/08/15 01:08:46;;;;;;;4.88;1.90;;;23.40;54.90;;;;;;6127828;23;20006;-68
2022/08/15 01:11:19;;;;;;;2.05;1.67;;;23.40;55.10;;;;;;6128070;23;20077;-68
2022/08/15 01:13:47;;;;;;;3.17;1.70;;;23.40;55.10;;;;;;6127444;23;20039;-68
2022/08/15 01:16:14;;;;;;;8.27;2.45;;;23.30;55.40;;;;;;6127769;23;20029;-68
2022/08/15 01:18:40;;;;;;;7.85;1.88;;;23.30;55.60;;;;;;6127924;23;20009;-68
2022/08/15 01:21:21;;;;;;;4.93;1.88;;;23.30;55.40;;;;;;6127977;23;20381;-66
2022/08/15 01:24:06;;;;;;;4.60;2.00;;;23.30;55.30;;;;;;6128119;23;20006;-70
2022/08/15 01:26:33;;;;;;;5.07;1.90;;;23.20;55.50;;;;;;6127773;23;20073;-68
2022/08/15 01:29:00;;;;;;;7.57;1.77;;;23.20;55.90;;;;;;6127618;23;20041;-68
2022/08/15 01:31:26;;;;;;;5.28;1.90;;;23.20;55.90;;;;;;6127541;23;20021;-67
2022/08/15 01:33:58;;;;;;;2.00;1.80;;;23.20;55.80;;;;;;6127643;23;19998;-75
2022/08/15 01:36:29;;;;;;;7.57;1.48;;;23.20;55.80;;;;;;6127592;23;20337;-75
2022/08/15 01:39:13;;;;;;;6.57;2.13;;;23.30;55.90;;;;;;6127653;23;20548;-69
2022/08/15 01:41:52;;;;;;;2.15;1.80;;;23.20;56.00;;;;;;6128082;23;20101;-68
2022/08/15 01:44:26;;;;;;;2.03;1.77;;;23.20;55.90;;;;;;6127667;23;20006;-68
2022/08/15 01:47:02;;;;;;;4.78;2.08;;;23.10;55.60;;;;;;6127721;23;20029;-68
2022/08/15 01:49:39;;;;;;;2.00;1.70;;;23.00;55.90;;;;;;6127828;23;20314;-68
2022/08/15 01:52:06;;;;;;;2.80;1.83;;;23.10;56.40;;;;;;6127716;23;20021;-68
2022/08/15 01:54:37;;;;;;;3.90;1.83;;;23.00;56.40;;;;;;6127595;23;20002;-69
2022/08/15 01:57:05;;;;;;;3.33;1.83;;;23.00;56.40;;;;;;6127587;23;20422;-68
2022/08/15 01:59:32;;;;;;;3.88;1.90;;;23.00;56.50;;;;;;6127632;23;20477;-68
2022/08/15 02:02:02;;;;;;;3.40;1.98;;;22.90;56.50;;;;;;6127700;23;20010;-68
2022/08/15 02:04:36;;;;;;;5.00;2.05;;;22.90;56.50;;;;;;6127707;23;20014;-68
2022/08/15 02:07:18;;;;;;;3.78;1.98;;;22.90;56.20;;;;;;6127550;23;19998;-68
2022/08/15 02:09:46;;;;;;;2.88;1.90;;;22.80;56.00;;;;;;6127009;23;20457;-68
2022/08/15 02:12:14;;;;;;;6.20;2.10;;;22.80;56.00;;;;;;6127097;23;20025;-68
2022/08/15 02:14:41;;;;;;;5.43;1.90;;;22.70;56.10;;;;;;6127517;23;20096;-68
2022/08/15 02:17:08;;;;;;;4.35;2.00;;;22.70;56.20;;;;;;6127144;23;20030;-68
2022/08/15 02:19:37;;;;;;;2.35;2.10;;;22.70;56.50;;;;;;6127354;23;20576;-68
2022/08/15 02:22:04;;;;;;;3.05;1.88;;;22.70;56.60;;;;;;6127504;23;20081;-68
2022/08/15 02:24:30;;;;;;;4.55;2.00;;;22.70;56.50;;;;;;6127261;23;20326;-68
2022/08/15 02:26:56;;;;;;;8.68;1.90;;;22.70;56.20;;;;;;6127285;23;19998;-68
2022/08/15 02:29:25;;;;;;;5.22;2.08;;;22.70;56.10;;;;;;6127493;23;20147;-68
2022/08/15 02:32:12;;;;;;;4.45;1.63;;;22.70;56.10;;;;;;6127120;23;20014;-69
2022/08/15 02:34:39;;;;;;;4.05;1.90;;;22.70;56.40;;;;;;6127245;23;20429;-68
2022/08/15 02:37:08;;;;;;;6.78;2.10;;;22.70;56.40;;;;;;6127442;23;20018;-69
2022/08/15 02:39:34;;;;;;;5.80;1.90;;;22.60;56.70;;;;;;6127219;23;20026;-68
2022/08/15 02:42:00;;;;;;;7.20;2.35;;;22.70;56.90;;;;;;6127176;23;20013;-69
2022/08/15 02:44:26;;;;;;;5.82;2.00;;;22.60;56.90;;;;;;6127244;23;19998;-68
2022/08/15 02:46:54;;;;;;;5.00;2.00;;;22.70;56.70;;;;;;6127127;23;20040;-68
2022/08/15 02:49:22;;;;;;;4.93;2.58;;;22.60;56.60;;;;;;6127138;23;20370;-68
2022/08/15 02:51:49;;;;;;;3.95;2.00;;;22.70;56.70;;;;;;6126923;23;20009;-68
2022/08/15 02:54:17;;;;;;;4.13;1.67;;;22.60;56.70;;;;;;6126963;23;20002;-68
2022/08/15 02:56:44;;;;;;;2.00;1.75;;;22.60;56.70;;;;;;6127029;23;20391;-68
2022/08/15 02:59:10;;;;;;;4.05;2.20;;;22.60;56.80;;;;;;6126246;23;20002;-68
2022/08/15 03:01:38;;;;;;;2.90;2.03;;;22.60;56.90;;;;;;6127058;23;20061;-68
2022/08/15 03:04:07;;;;;;;2.42;1.83;;;22.60;56.60;;;;;;6126871;23;20028;-69
2022/08/15 03:06:34;;;;;;;5.15;1.80;;;22.50;56.20;;;;;;6126775;23;20006;-68
2022/08/15 03:09:03;;;;;;;4.90;1.83;;;22.50;56.10;;;;;;6126918;23;20028;-68
2022/08/15 03:11:29;;;;;;;2.63;1.90;;;22.50;56.00;;;;;;6127137;23;20079;-68
2022/08/15 03:13:55;;;;;;;2.67;1.90;;;22.50;57.00;;;;;;6126920;23;19998;-65
2022/08/15 03:16:21;;;;;;;3.28;1.73;;;22.40;56.70;;;;;;6126735;23;20076;-74
2022/08/15 03:18:49;;;;;;;4.45;1.73;;;22.50;56.90;;;;;;6126696;23;20006;-68
2022/08/15 03:21:19;;;;;;;3.70;1.92;;;22.50;56.80;;;;;;6126602;23;20373;-69
2022/08/15 03:23:49;;;;;;;2.92;2.05;;;22.50;56.70;;;;;;6126804;23;20013;-68
2022/08/15 03:26:18;;;;;;;2.63;1.65;;;22.40;56.70;;;;;;6126630;23;20012;-68
2022/08/15 03:28:44;;;;;;;3.13;1.80;;;22.50;56.70;;;;;;6127026;23;20021;-68
2022/08/15 03:31:10;;;;;;;4.28;1.92;;;22.50;56.80;;;;;;6127022;23;20018;-68
2022/08/15 03:33:38;;;;;;;3.78;2.47;;;22.50;56.90;;;;;;6126428;23;20100;-67
2022/08/15 03:36:05;;;;;;;4.50;1.80;;;22.50;57.50;;;;;;6126808;23;20085;-68
2022/08/15 03:38:31;;;;;;;4.00;1.92;;;22.50;56.90;;;;;;6127103;23;19994;-68
2022/08/15 03:40:57;;;;;;;2.20;1.63;;;22.50;56.90;;;;;;6126294;23;20089;-67
2022/08/15 03:43:28;;;;;;;2.90;2.10;;;22.50;56.60;;;;;;6126613;23;20361;-67
2022/08/15 03:46:04;;;;;;;10.73;1.90;;;22.50;56.40;;;;;;6126569;23;20041;-68
2022/08/15 03:48:34;;;;;;;5.32;1.80;;;22.40;56.10;;;;;;6125889;23;20630;-68
2022/08/15 03:51:01;;;;;;;3.15;1.85;;;22.40;55.90;;;;;;6126230;23;20339;-68
2022/08/15 03:53:39;;;;;;;3.58;1.88;;;22.40;55.80;;;;;;6126712;23;20010;-69
2022/08/15 03:56:06;;;;;;;4.28;2.05;;;22.40;55.70;;;;;;6126852;23;20018;-68
2022/08/15 03:58:33;;;;;;;4.88;2.03;;;22.40;55.60;;;;;;6126471;23;20088;-67
2022/08/15 04:00:59;;;;;;;3.10;1.90;;;22.40;55.90;;;;;;6100496;23;20373;-68
2022/08/15 04:03:29;;;;;;;3.72;2.33;;;22.40;56.20;;;;;;6126152;23;20010;-68
2022/08/15 04:05:57;;;;;;;3.40;2.17;;;22.40;56.60;;;;;;6126341;23;20356;-69
2022/08/15 04:08:25;;;;;;;3.83;1.98;;;22.40;56.70;;;;;;6126431;23;20037;-68
2022/08/15 04:10:53;;;;;;;13.48;2.30;;;22.40;57.00;;;;;;6126617;23;20029;-68
2022/08/15 04:13:25;;;;;;;9.20;1.88;;;22.50;57.40;;;;;;6126434;23;20002;-68
2022/08/15 04:15:52;;;;;;;;;;;22.50;57.20;;;;;;6127412;23;20037;-67
2022/08/15 04:18:18;;;;;;;3.05;2.40;;;22.50;56.80;;;;;;6126180;23;19939;-67
2022/08/15 04:20:43;;;;;;;3.75;2.00;;;22.50;56.50;;;;;;6126295;23;20006;-68
2022/08/15 04:23:09;;;;;;;3.22;2.03;;;22.50;56.30;;;;;;6126694;23;20013;-68
2022/08/15 04:25:39;;;;;;;2.45;1.70;;;22.50;56.10;;;;;;6126343;23;20035;-68
2022/08/15 04:28:05;;;;;;;5.15;1.92;;;22.50;56.10;;;;;;6126883;23;20128;-68
2022/08/15 04:30:34;;;;;;;3.58;1.85;;;22.50;55.80;;;;;;6125901;23;20016;-68
2022/08/15 04:33:27;;;;;;;2.25;1.88;;;22.50;55.80;;;;;;6126055;23;20437;-68
2022/08/15 04:36:14;;;;;;;2.35;1.95;;;22.50;56.00;;;;;;6122249;23;20037;-68
2022/08/15 04:38:42;;;;;;;4.88;2.17;;;22.60;56.30;;;;;;6126336;23;20006;-68
2022/08/15 04:41:10;;;;;;;4.53;1.95;;;22.60;56.60;;;;;;6125979;23;20346;-67
2022/08/15 04:43:38;;;;;;;2.30;1.70;;;22.60;56.80;;;;;;6125767;23;20017;-68
2022/08/15 04:46:04;;;;;;;4.13;1.83;;;22.60;56.60;;;;;;6126131;23;20029;-68
2022/08/15 04:48:31;;;;;;;4.53;1.90;;;22.60;56.70;;;;;;6126248;23;20489;-68
2022/08/15 04:50:58;;;;;;;3.28;2.20;;;22.60;57.00;;;;;;6126090;23;20464;-68
2022/08/15 04:53:27;;;;;;;4.18;2.00;;;22.60;57.20;;;;;;6126031;23;20002;-68
2022/08/15 04:55:55;;;;;;;2.25;1.80;;;22.60;57.20;;;;;;6125927;23;20010;-68
2022/08/15 04:58:21;;;;;;;5.03;2.00;;;22.60;57.20;;;;;;6126491;23;20006;-68
2022/08/15 05:01:03;;;;;;;4.65;1.90;;;22.60;57.20;;;;;;6126065;23;20012;-69
2022/08/15 05:03:28;;;;;;;4.32;1.98;;;22.60;57.80;;;;;;6125886;23;20380;-66
2022/08/15 05:06:00;;;;;;;3.15;1.88;;;22.60;58.20;;;;;;6126140;23;20010;-69
2022/08/15 05:08:27;;;;;;;2.75;1.80;;;22.60;58.30;;;;;;6125902;23;20025;-68
2022/08/15 05:11:09;;;;;;;4.20;1.65;;;22.60;58.00;;;;;;6126011;23;20013;-68
2022/08/15 05:13:36;;;;;;;6.93;2.30;;;22.50;57.30;;;;;;6126085;23;20006;-68
2022/08/15 05:16:07;;;;;;;4.28;1.80;;;22.50;56.60;;;;;;6126086;23;20009;-69
2022/08/15 05:18:39;;;;;;;5.47;2.00;;;22.60;56.40;;;;;;6125993;23;20065;-68
2022/08/15 05:21:08;;;;;;;3.58;2.05;;;22.60;56.20;;;;;;6125749;23;20006;-68
2022/08/15 05:23:34;;;;;;;3.15;1.95;;;22.50;56.10;;;;;;6126018;23;19998;-67
2022/08/15 05:26:01;;;;;;;4.50;2.00;;;22.50;56.30;;;;;;6126330;23;20020;-67
2022/08/15 05:28:28;;;;;;;4.80;1.73;;;22.50;56.30;;;;;;6125974;23;20342;-68
2022/08/15 05:30:58;;;;;;;4.85;1.70;;;22.50;56.60;;;;;;6125970;23;20045;-69
2022/08/15 05:33:27;;;;;;;2.47;1.90;;;22.60;56.70;;;;;;6126307;23;20010;-68
2022/08/15 05:35:56;;;;;;;3.85;2.00;;;22.60;56.90;;;;;;6126320;23;20019;-68
2022/08/15 05:38:46;;;;;;;8.30;1.80;;;22.60;57.00;;;;;;6125600;23;20010;-68
2022/08/15 05:41:15;;;;;;;5.57;2.20;;;22.60;57.20;;;;;;6125205;23;20104;-68
2022/08/15 05:43:40;;;;;;;2.60;1.80;;;22.60;57.40;;;;;;6126140;23;20325;-68
2022/08/15 05:46:11;;;;;;;9.10;1.85;;;22.60;57.40;;;;;;6127548;23;20009;-68
2022/08/15 05:48:38;;;;;;;3.63;2.00;;;22.60;57.90;;;;;;6127943;23;20002;-69
2022/08/15 05:51:32;;;;;;;2.58;1.80;;;22.60;58.00;;;;;;6127444;23;20018;-68
2022/08/15 05:54:40;;;;;;;2.75;1.73;;;22.60;58.00;;;;;;6127106;23;20006;-68
2022/08/15 05:57:26;;;;;;;2.78;1.95;;;22.60;57.90;;;;;;6127681;23;20065;-68
2022/08/15 05:59:56;;;;;;;5.53;1.70;;;22.60;57.70;;;;;;6127895;23;20012;-69
2022/08/15 06:02:31;;;;;;;3.20;1.80;;;22.50;57.50;;;;;;6127230;23;20077;-68
2022/08/15 06:05:03;;;;;;;5.38;2.10;;;22.50;57.30;;;;;;6127109;23;20425;-68
2022/08/15 06:07:31;;;;;;;4.25;1.90;;;22.50;57.20;;;;;;6127908;23;20081;-68
2022/08/15 06:10:01;;;;;;;4.68;1.80;;;22.50;57.60;;;;;;6127467;23;20445;-68
2022/08/15 06:12:34;;;;;;;4.38;1.77;;;22.60;57.90;;;;;;6127730;23;20092;-67
2022/08/15 06:15:27;;;;;;;5.25;1.77;;;22.50;58.00;;;;;;6127182;23;20332;-68
2022/08/15 06:17:57;;;;;;;;;;;22.60;58.10;;;;;;6112362;23;20014;-68
2022/08/15 06:20:50;;;;;;;3.60;2.00;;;22.60;57.90;;;;;;6126485;23;20236;-67
2022/08/15 06:23:45;;;;;;;3.58;1.70;;;22.60;58.10;;;;;;6126184;23;20010;-68
2022/08/15 06:26:36;;;;;;;8.40;1.90;;;22.70;57.90;;;;;;6085028;23;20041;-67
2022/08/15 06:29:17;;;;;;;2.72;2.03;;;22.80;57.60;;;;;;6127449;23;20321;-65
2022/08/15 06:31:58;;;;;;;5.68;1.77;;;22.80;56.90;;;;;;6127101;23;20018;-69
2022/08/15 06:34:46;;;;;;;5.82;1.85;;;22.90;56.30;;;;;;6127398;23;20438;-68
2022/08/15 06:37:15;;;;;;;3.95;1.70;;;22.90;55.80;;;;;;6126477;23;20010;-70
2022/08/15 06:40:01;;;;;;;2.42;1.80;;;23.00;55.40;;;;;;6126345;23;20379;-68
2022/08/15 06:42:40;;;;;;;4.90;1.98;;;23.00;55.00;;;;;;6127298;23;20002;-71
2022/08/15 06:45:14;;;;;;;2.28;1.75;;;23.10;54.70;;;;;;6127214;23;19998;-67
2022/08/15 06:47:41;;;;;;;3.50;1.80;;;23.20;54.40;;;;;;6126769;23;20061;-66
2022/08/15 06:50:18;;;;;;;4.63;1.70;;;23.20;54.10;;;;;;6100762;23;20376;-67
2022/08/15 06:52:53;;;;;;;4.80;2.28;;;23.30;54.00;;;;;;6127178;23;20084;-68
2022/08/15 06:55:22;;;;;;;2.95;1.63;;;23.30;53.80;;;;;;6126747;23;20093;-66
2022/08/15 06:58:00;;;;;;;2.47;1.63;;;23.40;53.60;;;;;;6126866;23;20006;-68
2022/08/15 07:00:41;;;;;;;3.75;2.13;;;23.40;53.40;;;;;;6126317;23;20085;-67
2022/08/15 07:03:15;;;;;;;4.32;2.10;;;23.50;53.00;;;;;;6126597;23;20515;-67
2022/08/15 07:05:54;;;;;;;2.63;1.70;;;23.60;52.70;;;;;;6126308;23;19998;-68
2022/08/15 07:08:40;;;;;;;2.67;1.75;;;23.60;52.40;;;;;;6127297;23;20002;-67
2022/08/15 07:11:27;;;;;;;6.45;1.73;;;23.70;52.20;;;;;;6125567;23;20464;-67
2022/08/15 07:14:19;;;;;;;3.08;2.03;;;23.70;52.00;;;;;;6126205;23;20005;-68
2022/08/15 07:16:57;;;;;;;6.32;2.33;;;23.80;51.90;;;;;;6127295;23;20088;-68
2022/08/15 07:19:22;;;;;;;3.80;2.40;;;23.90;51.80;;;;;;6125541;23;20606;-68
2022/08/15 07:21:48;;;;;;;2.88;1.55;;;23.90;51.50;;;;;;6125650;23;20001;-68
2022/08/15 07:24:17;;;;;;;2.10;1.58;;;24.00;51.40;;;;;;6126280;23;20461;-69
2022/08/15 07:27:05;;;;;;;2.90;2.03;;;24.00;51.20;;;;;;6126604;23;20033;-67
2022/08/15 07:29:36;;;;;;;2.55;1.77;;;24.10;50.90;;;;;;6127028;23;20077;-68
2022/08/15 07:32:25;;;;;;;4.55;1.73;;;24.20;50.60;;;;;;6126937;23;20366;-67
2022/08/15 07:34:59;;;;;;;3.25;1.52;;;24.20;50.30;;;;;;6126585;23;20065;-67
2022/08/15 07:37:32;;;;;;;4.05;1.60;;;24.30;50.30;;;;;;6126665;23;20082;-68
2022/08/15 07:40:12;;;;;;;4.00;2.20;;;24.40;50.00;;;;;;6126460;23;20425;-67
2022/08/15 07:42:42;;;;;;;6.30;2.17;;;24.50;49.40;;;;;;6126935;23;20014;-71
2022/08/15 07:45:28;;;;;;;3.95;1.65;;;24.60;49.00;;;;;;6127025;23;20329;-68
2022/08/15 07:48:16;;;;;;;4.80;1.80;;;24.60;48.60;;;;;;6126940;23;20330;-68
2022/08/15 07:50:45;;;;;;;3.20;1.90;;;24.70;48.20;;;;;;6126524;23;20010;-68
2022/08/15 07:53:20;;;;;;;3.28;1.80;;;24.80;47.70;;;;;;6126643;23;20029;-68
2022/08/15 07:56:10;;;;;;;4.30;1.83;;;24.90;47.30;;;;;;6126469;23;20013;-68
2022/08/15 07:58:36;;;;;;;2.55;1.80;;;25.00;47.10;;;;;;6126558;23;20077;-71
2022/08/15 08:01:13;;;;;;;3.80;1.80;;;25.10;47.10;;;;;;6126205;23;20033;-67
2022/08/15 08:03:46;;;;;;;3.92;1.77;;;25.20;46.80;;;;;;6126469;23;20006;-68
2022/08/15 08:06:33;;;;;;;4.40;1.92;;;25.20;46.50;;;;;;6126680;23;20013;-68
2022/08/15 08:09:08;;;;;;;2.60;1.90;;;25.30;46.60;;;;;;6126076;23;20010;-67
2022/08/15 08:11:54;;;;;;;3.65;1.80;;;25.40;45.90;;;;;;6126106;23;20438;-68
2022/08/15 08:14:41;;;;;;;2.75;1.60;;;25.40;45.50;;;;;;6126456;23;20024;-68
2022/08/15 08:17:12;;;;;;;1.83;1.73;;;25.50;45.10;;;;;;6126476;23;20129;-68
2022/08/15 08:19:40;;;;;;;2.58;1.70;;;25.60;45.40;;;;;;6126519;23;20065;-68
2022/08/15 08:22:20;;;;;;;3.50;1.70;;;25.70;45.30;;;;;;6126359;23;20009;-68
2022/08/15 08:25:06;;;;;;;5.25;2.10;;;25.80;45.40;;;;;;6126360;23;20002;-68
2022/08/15 08:27:47;;;;;;;4.38;1.73;;;25.90;44.70;;;;;;6126109;23;20010;-73
2022/08/15 08:30:19;;;;;;;1.92;1.73;;;25.90;44.40;;;;;;6126500;23;20002;-68
2022/08/15 08:32:52;;;;;;;;;;;25.90;44.30;;;;;;6127196;23;20014;-68
2022/08/15 08:35:40;;;;;;;2.42;1.83;;;25.90;44.20;;;;;;6126217;23;19901;-69
2022/08/15 08:38:15;;;;;;;2.85;1.80;;;26.00;44.00;;;;;;6126531;23;20314;-67
2022/08/15 08:41:24;;;;;;;2.63;1.67;;;26.00;44.00;;;;;;6126201;23;20105;-68
2022/08/15 08:44:09;;;;;;;2.85;1.77;;;26.10;43.80;;;;;;6008421;23;20084;-68
2022/08/15 08:46:55;;;;;;;4.47;2.03;;;26.10;43.40;;;;;;6124140;23;20021;-68
2022/08/15 08:49:51;;;;;;;2.78;1.70;;;26.10;43.20;;;;;;6126101;23;20028;-68
2022/08/15 08:52:41;;;;;;;2.05;1.60;;;26.10;43.20;;;;;;6126021;23;20018;-68
2022/08/15 08:55:08;;;;;;;2.30;1.83;;;26.20;43.30;;;;;;6126517;23;20325;-68
2022/08/15 08:57:54;;;;;;;3.97;1.70;;;26.30;43.00;;;;;;6126270;23;20085;-70
2022/08/15 09:00:22;;;;;;;3.15;1.60;;;26.30;43.30;;;;;;6126347;23;20006;-68
2022/08/15 09:03:02;;;;;;;4.13;1.42;;;26.40;42.50;;;;;;6126145;23;20433;-68
2022/08/15 09:05:37;;;;;;;3.00;2.00;;;26.40;42.10;;;;;;6126251;23;20002;-68
2022/08/15 09:08:12;;;;;;;3.55;1.80;;;26.50;42.00;;;;;;6126079;23;20069;-68
2022/08/15 09:10:42;;;;;;;5.25;1.85;;;26.50;42.10;;;;;;6126127;23;20022;-67
2022/08/15 09:15:59;;;;;;;3.55;1.63;;;26.60;43.10;;;;;;6126078;23;20045;-68
2022/08/15 09:18:33;;;;;;;4.03;2.13;;;26.70;44.10;;;;;;6126001;23;20037;-68
2022/08/15 09:21:00;;;;;;;2.47;1.83;;;26.70;44.50;;;;;;6128023;23;20337;-68
2022/08/15 09:23:36;;;;;;;2.08;1.73;;;26.70;44.50;;;;;;6128096;23;20010;-69
2022/08/15 09:26:13;;;;;;;2.47;2.03;;;26.70;44.40;;;;;;6128334;23;20005;-68
2022/08/15 09:28:45;;;;;;;6.40;1.90;;;26.70;44.00;;;;;;6128518;23;20002;-68
2022/08/15 09:31:27;;;;;;;4.60;1.90;;;26.70;44.00;;;;;;6128432;23;20033;-68
2022/08/15 09:34:09;;;;;;;5.78;2.00;;;26.70;44.00;;;;;;6127855;23;20010;-68
2022/08/15 09:36:40;;;;;;;3.15;2.38;;;26.80;44.40;;;;;;6128218;23;20381;-68
2022/08/15 09:39:06;;;;;;;3.13;2.25;;;26.80;44.60;;;;;;6127770;23;20085;-68
2022/08/15 09:41:47;;;;;;;3.17;2.47;;;26.80;44.60;;;;;;6127568;23;20044;-68
2022/08/15 09:44:20;;;;;;;4.57;2.28;;;26.80;44.80;;;;;;6128319;23;20013;-69
2022/08/15 09:47:08;;;;;;;3.60;2.70;;;26.80;45.00;;;;;;6127594;23;20041;-68
2022/08/15 09:50:06;;;;;;;3.45;2.35;;;26.90;45.30;;;;;;6127645;23;20041;-67
2022/08/15 09:53:01;;;;;;;4.15;2.47;;;26.80;45.80;;;;;;6126869;23;20158;-68
2022/08/15 09:55:34;;;;;;;3.70;2.40;;;26.90;46.50;;;;;;6074230;23;20010;-68
2022/08/15 09:58:31;;;;;;;3.33;2.53;;;26.90;47.00;;;;;;6126252;23;20440;-68
2022/08/15 10:01:08;;;;;;;3.47;2.30;;;27.00;47.30;;;;;;6124412;23;20054;-70
2022/08/15 10:03:57;;;;;;;4.32;2.63;;;27.10;48.00;;;;;;6125450;23;20017;-68
2022/08/15 10:06:27;;;;;;;4.57;2.20;;;27.20;48.20;;;;;;6125921;23;20314;-69
2022/08/15 10:08:53;;;;;;;6.50;2.42;;;27.30;46.70;;;;;;6126154;23;20014;-67
2022/08/15 10:11:39;;;;;;;7.35;2.38;;;27.40;46.50;;;;;;6126062;23;20022;-68
2022/08/15 10:14:25;;;;;;;5.05;2.88;;;27.40;46.20;;;;;;6126223;23;20018;-68
2022/08/15 10:16:55;;;;;;;5.70;2.40;;;27.50;46.00;;;;;;6126120;23;20073;-69
2022/08/15 10:19:39;;;;;;;9.27;2.72;;;27.50;45.80;;;;;;6125396;23;20081;-68
2022/08/15 10:22:24;;;;;;;9.68;7.47;;;27.60;46.30;;;;;;6125290;23;20002;-68
2022/08/15 10:25:17;;;;;;;3.25;2.33;;;27.60;46.90;;;;;;6125270;23;20422;-69
2022/08/15 10:28:06;;;;;;;4.68;2.30;;;27.60;46.90;;;;;;6125675;23;20040;-69
2022/08/15 10:30:46;;;;;;;3.45;2.97;;;27.70;46.80;;;;;;6125268;23;20006;-69
2022/08/15 10:33:44;;;;;;;9.82;3.05;;;27.70;46.90;;;;;;6125276;23;20018;-68
2022/08/15 10:36:13;;;;;;;5.10;2.15;;;27.80;47.30;;;;;;6103694;23;20006;-69
2022/08/15 10:38:50;;;;;;;4.25;2.53;;;27.80;46.80;;;;;;6125783;23;20404;-68
2022/08/15 10:42:01;;;;;;;9.27;5.93;;;27.90;47.00;;;;;;6125149;23;20096;-70
2022/08/15 10:44:48;;;;;;;24.27;15.30;;;28.00;47.00;;;;;;6061508;23;20041;-69
2022/08/15 10:47:42;;;;;;;8.50;5.28;;;28.10;47.10;;;;;;6125467;23;20029;-68
2022/08/15 10:50:20;;;;;;;6.10;3.80;;;28.10;47.10;;;;;;6125408;23;20006;-68
2022/08/15 10:52:52;;;;;;;3.42;2.42;;;28.20;47.30;;;;;;6125481;23;20017;-68
2022/08/15 10:55:34;;;;;;;;;;;28.30;47.00;;;;;;6125713;23;20333;-68
2022/08/15 10:58:21;;;;;;;13.65;7.15;;;28.30;46.50;;;;;;6125704;23;20228;-69
2022/08/15 11:00:53;;;;;;;6.22;3.92;;;28.40;46.60;;;;;;6104859;23;20020;-68
2022/08/15 11:03:35;;;;;;;13.05;5.95;;;28.40;46.40;;;;;;6125628;23;20002;-68
2022/08/15 11:06:03;;;;;;;;;;;28.50;46.10;;;;;;6125785;23;20433;-70
2022/08/15 11:08:29;;;;;;;11.13;6.60;;;28.50;46.00;;;;;;6125754;23;19901;-68
2022/08/15 11:11:07;;;;;;;4.65;3.20;;;28.60;46.10;;;;;;6125558;23;20016;-68
2022/08/15 11:13:36;;;;;;;14.00;10.52;;;28.70;46.20;;;;;;6126525;23;20002;-73
2022/08/15 11:16:14;;;;;;;12.43;6.80;;;28.70;46.20;;;;;;6127004;23;20010;-73
2022/08/15 11:19:02;;;;;;;4.28;2.92;;;28.80;46.50;;;;;;6126770;23;20002;-68
2022/08/15 11:21:39;;;;;;;4.90;4.10;;;28.80;46.10;;;;;;6126041;23;20422;-68
2022/08/15 11:24:07;;;;;;;8.57;6.70;;;28.90;46.10;;;;;;6126372;23;20017;-69
2022/08/15 11:26:36;;;;;;;6.72;4.22;;;28.90;45.50;;;;;;6126585;23;20006;-68
2022/08/15 11:29:20;;;;;;;2.72;2.45;;;29.00;45.70;;;;;;6126667;23;20065;-68
2022/08/15 11:31:55;;;;;;;2.67;2.40;;;29.10;45.50;;;;;;6126140;23;20014;-67
2022/08/15 11:34:32;;;;;;;3.30;2.05;;;29.10;44.80;;;;;;6126667;23;20017;-68
2022/08/15 11:37:09;;;;;;;4.70;2.13;;;29.20;44.30;;;;;;6126580;23;19998;-68
2022/08/15 11:39:40;;;;;;;6.57;3.10;;;29.20;43.60;;;;;;6126030;23;20517;-68
2022/08/15 11:42:09;;;;;;;2.60;2.22;;;29.30;43.40;;;;;;6125846;23;20017;-68
2022/08/15 11:44:50;;;;;;;3.15;2.65;;;29.30;43.10;;;;;;6126289;23;20093;-68
2022/08/15 11:47:17;;;;;;;6.90;5.60;;;29.40;42.80;;;;;;6126364;23;20492;-67
2022/08/15 11:50:06;;;;;;;3.97;2.33;;;29.40;42.70;;;;;;6126222;23;20389;-68
2022/08/15 11:52:36;;;;;;;5.15;2.97;;;29.50;42.90;;;;;;6126161;23;20018;-68
2022/08/15 11:55:32;;;;;;;7.25;6.25;;;29.60;44.00;;;;;;6125907;23;20009;-66
2022/08/15 11:58:17;;;;;;;3.38;2.25;;;29.60;44.20;;;;;;6084368;23;20341;-68
2022/08/15 12:00:48;;;;;;;6.32;2.72;;;29.60;44.40;;;;;;6125836;23;20002;-69
2022/08/15 12:03:19;;;;;;;4.15;3.42;;;29.70;44.50;;;;;;6125960;23;20009;-69
2022/08/15 12:05:46;;;;;;;6.22;3.95;;;29.80;44.60;;;;;;6126481;23;20021;-68
2022/08/15 12:08:12;;;;;;;3.80;3.28;;;29.80;44.40;;;;;;6125621;23;20430;-69
2022/08/15 12:10:41;;;;;;;4.53;2.65;;;29.90;44.20;;;;;;6126147;23;20021;-66
2022/08/15 12:13:07;;;;;;;7.15;4.75;;;29.90;44.20;;;;;;6126229;23;20017;-68
2022/08/15 12:15:33;;;;;;;4.13;2.35;;;29.90;44.70;;;;;;6126029;23;20005;-68
2022/08/15 12:18:05;;;;;;;4.18;2.60;;;29.90;44.90;;;;;;6126208;23;20006;-68
2022/08/15 12:20:41;;;;;;;;;;;30.00;44.90;;;;;;6126756;23;20029;-68
2022/08/15 12:23:22;;;;;;;5.80;3.00;;;30.00;44.90;;;;;;6125903;23;19901;-68
2022/08/15 12:25:56;;;;;;;5.05;2.40;;;30.00;45.10;;;;;;6125783;23;20013;-68
2022/08/15 12:28:25;;;;;;;4.30;2.50;;;30.10;45.40;;;;;;6125682;23;20010;-68
2022/08/15 12:30:58;;;;;;;4.45;2.40;;;30.10;45.60;;;;;;6125506;23;20014;-68
2022/08/15 12:33:24;;;;;;;4.85;2.50;;;30.20;45.60;;;;;;6125978;23;20005;-70
2022/08/15 12:35:51;;;;;;;4.68;2.50;;;30.10;45.50;;;;;;6125895;23;20021;-69
2022/08/15 12:38:18;;;;;;;4.53;3.13;;;30.10;45.60;;;;;;6125603;23;20013;-68
2022/08/15 12:40:44;;;;;;;4.82;2.90;;;30.10;45.70;;;;;;6125740;23;20028;-68
2022/08/15 12:43:10;;;;;;;5.35;2.72;;;30.10;45.90;;;;;;6126017;23;20068;-69
2022/08/15 12:45:37;;;;;;;3.45;2.28;;;30.10;46.30;;;;;;6126013;23;20464;-70
2022/08/15 12:48:23;;;;;;;5.80;2.30;;;30.10;46.40;;;;;;6125976;23;20425;-68
2022/08/15 12:50:49;;;;;;;2.63;2.15;;;30.20;46.40;;;;;;6125880;23;20022;-67
2022/08/15 12:53:15;;;;;;;3.95;2.30;;;30.20;45.20;;;;;;6126879;23;20108;-68
2022/08/15 12:55:43;;;;;;;6.00;3.70;;;30.20;44.20;;;;;;6129100;23;20418;-73
2022/08/15 12:58:10;;;;;;;9.63;2.75;;;30.30;43.70;;;;;;6128829;23;20085;-68
2022/08/15 13:00:36;;;;;;;3.83;2.22;;;30.30;43.50;;;;;;6128209;23;20020;-69
2022/08/15 13:03:16;;;;;;;6.00;3.25;;;30.40;43.20;;;;;;6128821;23;20350;-67
2022/08/15 13:05:43;;;;;;;6.80;2.28;;;30.30;43.50;;;;;;6128391;23;20320;-65
2022/08/15 13:08:09;;;;;;;4.95;2.05;;;30.20;43.80;;;;;;6128874;23;20002;-66
2022/08/15 13:10:35;;;;;;;7.00;2.10;;;30.20;43.40;;;;;;6129190;23;20021;-66
2022/08/15 13:13:01;;;;;;;2.75;2.30;;;30.20;43.20;;;;;;6129045;23;20367;-67
2022/08/15 13:15:27;;;;;;;3.35;2.00;;;30.10;44.00;;;;;;6129239;23;20009;-64
2022/08/15 13:17:53;;;;;;;2.60;2.00;;;30.10;43.60;;;;;;6129473;23;20044;-68
2022/08/15 13:25:58;;;;;;;6.85;3.05;;;30.10;48.80;;;;;;6129263;23;20333;-67
2022/08/15 13:28:24;;;;;;;10.32;3.15;;;30.20;50.50;;;;;;6128917;23;20001;-67
2022/08/15 13:30:51;;;;;;;5.97;2.85;;;30.30;50.60;;;;;;6128628;23;20009;-67
2022/08/15 13:33:17;;;;;;;10.88;3.17;;;30.30;50.50;;;;;;6128789;23;20370;-67